International Falls, Minnesota
Current Conditions -  °F | °C
As of 8:25 AM on Sunday 23 Nov 2014 (Local Time) from KINL Reporting Station
Haze Haze  
Wind Chill:   Ceiling: 300
Heat Index:   Visibility: 1mi
Dew Point:   Wind: 0mph
Humidity: 96%   Direction: NA
Pressure: 29.41"   Gusts: NA
Location:  48.6°N, 93.4°W
Report Text: KINL 231425Z AUTO 00000KT 1SM BR BKN003 OVC007 01/00 A2941 RMK AO2 CIG 002V005 T00060000 $
Loading
Personal Weather Stations






























Interactive Weather Map New forecast layout! Learn more

10-Day Weather Forecast

Advertisements
Track Severe Weather on mobile